createdAt,value
2023-03-11T00:02:51.254Z,100.00
2023-03-11T00:06:17.067Z,100.00
2023-03-11T00:09:42.944Z,100.00
2023-03-11T00:13:56.882Z,100.00
2023-03-11T00:16:56.326Z,100.00
2023-03-11T00:20:23.967Z,100.00
2023-03-11T00:23:49.678Z,100.00
2023-03-11T00:27:15.577Z,100.00
2023-03-11T00:30:42.124Z,100.00
2023-03-11T00:34:08.271Z,100.00
2023-03-11T00:37:34.218Z,100.00
2023-03-11T00:41:01.709Z,100.00
2023-03-11T00:44:27.523Z,100.00
2023-03-11T00:47:55.600Z,100.00
2023-03-11T00:51:21.224Z,100.00
2023-03-11T00:54:47.289Z,100.00
2023-03-11T00:58:15.263Z,100.00
2023-03-11T01:01:43.858Z,100.00
2023-03-11T01:05:10.461Z,100.00
2023-03-11T01:08:36.295Z,100.00
2023-03-11T01:12:01.986Z,100.00
2023-03-11T01:15:29.923Z,100.00
2023-03-11T01:18:55.538Z,100.00
2023-03-11T01:22:21.362Z,100.00
2023-03-11T01:25:47.198Z,100.00
2023-03-11T01:29:13.142Z,100.00
2023-03-11T01:32:38.974Z,100.00
2023-03-11T01:36:05.336Z,100.00
2023-03-11T01:39:30.979Z,100.00
2023-03-11T01:42:49.435Z,100.00
2023-03-11T01:46:17.940Z,100.00
2023-03-11T01:49:43.700Z,100.00
2023-03-11T01:53:10.916Z,100.00
2023-03-11T01:56:38.933Z,100.00
2023-03-11T02:00:09.006Z,100.00
2023-03-11T02:03:38.910Z,100.00
2023-03-11T02:07:52.366Z,100.00
2023-03-11T02:10:53.160Z,100.00
2023-03-11T02:14:18.820Z,100.00
2023-03-11T02:17:44.927Z,100.00
2023-03-11T02:21:18.682Z,100.00
2023-03-11T02:24:46.523Z,100.00
2023-03-11T02:28:13.566Z,100.00
2023-03-11T02:31:42.896Z,100.00
2023-03-11T02:35:09.290Z,100.00
2023-03-11T02:38:35.298Z,100.00
2023-03-11T02:42:01.875Z,100.00
2023-03-11T02:45:29.451Z,100.00
2023-03-11T02:48:55.385Z,100.00
2023-03-11T02:52:21.273Z,100.00
2023-03-11T02:55:46.902Z,100.00
2023-03-11T02:59:12.945Z,100.00
2023-03-11T03:02:38.999Z,100.00
2023-03-11T03:06:04.908Z,100.00
2023-03-11T03:09:30.648Z,100.00
2023-03-11T03:12:56.592Z,100.00
2023-03-11T03:16:22.647Z,100.00
2023-03-11T03:19:48.489Z,100.00
2023-03-11T03:23:14.344Z,100.00
2023-03-11T03:26:40.450Z,100.00
2023-03-11T03:30:07.226Z,100.00
2023-03-11T03:33:33.458Z,100.00
2023-03-11T03:36:59.355Z,100.00
2023-03-11T03:40:25.096Z,100.00
2023-03-11T03:43:50.846Z,100.00
2023-03-11T03:47:16.839Z,100.00
2023-03-11T03:50:42.573Z,100.00
2023-03-11T03:54:09.316Z,100.00
2023-03-11T03:57:35.222Z,100.00
2023-03-11T04:01:01.118Z,100.00
2023-03-11T04:04:26.970Z,100.00
2023-03-11T04:07:52.977Z,100.00
2023-03-11T04:11:21.686Z,100.00
2023-03-11T04:14:47.446Z,100.00
2023-03-11T04:18:13.219Z,100.00
2023-03-11T04:21:39.083Z,100.00
2023-03-11T04:25:05.234Z,100.00
2023-03-11T04:28:31.000Z,100.00
2023-03-11T04:31:57.928Z,100.00
2023-03-11T04:35:23.938Z,100.00
2023-03-11T04:38:50.053Z,100.00
2023-03-11T04:42:15.778Z,100.00
2023-03-11T04:45:43.531Z,100.00
2023-03-11T04:49:10.896Z,100.00
2023-03-11T04:52:36.938Z,100.00
2023-03-11T04:56:02.961Z,100.00
2023-03-11T04:59:28.487Z,100.00
2023-03-11T05:02:54.377Z,100.00
2023-03-11T05:06:20.364Z,100.00
2023-03-11T05:09:47.339Z,100.00
2023-03-11T05:13:13.129Z,100.00
2023-03-11T05:16:38.797Z,100.00
2023-03-11T05:20:08.174Z,100.00
2023-03-11T05:23:34.365Z,100.00
2023-03-11T05:27:00.136Z,100.00
2023-03-11T05:30:26.263Z,100.00
2023-03-11T05:33:52.293Z,100.00
2023-03-11T05:37:18.018Z,100.00
2023-03-11T05:40:43.839Z,100.00
2023-03-11T05:44:09.706Z,100.00
2023-03-11T05:47:36.418Z,100.00
2023-03-11T05:51:02.279Z,100.00
2023-03-11T05:54:28.282Z,100.00
2023-03-11T05:57:54.150Z,100.00
2023-03-11T06:01:20.775Z,100.00
2023-03-11T06:04:46.904Z,100.00
2023-03-11T06:08:13.017Z,100.00
2023-03-11T06:11:40.089Z,100.00
2023-03-11T06:15:06.677Z,100.00
2023-03-11T06:18:32.645Z,100.00
2023-03-11T06:21:59.234Z,100.00
2023-03-11T06:25:46.134Z,100.00
2023-03-11T06:29:14.014Z,100.00
2023-03-11T06:32:46.368Z,100.00
2023-03-11T06:36:14.045Z,100.00
2023-03-11T06:40:00.194Z,100.00
2023-03-11T06:43:26.202Z,100.00
2023-03-11T06:46:52.737Z,100.00
2023-03-11T06:50:18.803Z,100.00
2023-03-11T06:53:49.479Z,100.00
2023-03-11T06:57:15.162Z,100.00
2023-03-11T07:00:42.703Z,100.00
2023-03-11T07:04:10.720Z,100.00
2023-03-11T07:07:36.350Z,100.00
2023-03-11T07:11:02.849Z,100.00
2023-03-11T07:14:28.904Z,100.00
2023-03-11T07:17:55.913Z,100.00
2023-03-11T07:21:23.080Z,100.00
2023-03-11T07:24:48.965Z,100.00
2023-03-11T07:28:15.234Z,100.00
2023-03-11T07:31:42.406Z,100.00
2023-03-11T07:35:08.606Z,100.00
2023-03-11T07:38:34.426Z,100.00
2023-03-11T07:41:58.769Z,100.00
2023-03-11T07:45:24.378Z,100.00
2023-03-11T07:48:51.056Z,100.00
2023-03-11T07:52:16.837Z,100.00
2023-03-11T07:55:42.536Z,100.00
2023-03-11T07:59:08.480Z,100.00
2023-03-11T08:02:34.595Z,100.00
2023-03-11T08:06:00.372Z,100.00
2023-03-11T08:09:26.426Z,100.00
2023-03-11T08:12:52.132Z,100.00
2023-03-11T08:16:19.863Z,100.00
2023-03-11T08:19:45.810Z,100.00
2023-03-11T08:23:11.519Z,100.00
2023-03-11T08:26:37.129Z,100.00
2023-03-11T08:30:03.360Z,100.00
2023-03-11T08:33:29.169Z,100.00
2023-03-11T08:36:56.671Z,100.00
2023-03-11T08:40:22.419Z,100.00
2023-03-11T08:43:48.345Z,100.00
2023-03-11T08:47:17.234Z,100.00
2023-03-11T08:50:53.578Z,100.00
2023-03-11T08:54:20.093Z,100.00
2023-03-11T08:57:46.128Z,100.00
2023-03-11T09:01:13.763Z,100.00
2023-03-11T09:04:19.836Z,100.00
2023-03-11T09:07:25.504Z,100.00
2023-03-11T09:10:31.237Z,100.00
2023-03-11T09:17:36.120Z,100.00
2023-03-11T09:20:42.348Z,100.00
2023-03-11T09:23:55.881Z,100.00
2023-03-11T09:27:17.045Z,100.00
2023-03-11T09:35:14.213Z,100.00
2023-03-11T09:38:24.599Z,100.00
2023-03-11T09:42:19.723Z,100.00
2023-03-11T09:46:05.854Z,100.00
2023-03-11T09:49:37.524Z,100.00
2023-03-11T09:53:14.319Z,100.00
2023-03-11T09:56:44.348Z,100.00
2023-03-11T10:00:13.768Z,100.00
2023-03-11T10:03:40.741Z,100.00
2023-03-11T10:07:13.469Z,100.00
2023-03-11T10:10:43.126Z,100.00
2023-03-11T10:14:14.156Z,100.00
2023-03-11T10:17:47.482Z,100.00
2023-03-11T10:21:19.574Z,100.00
2023-03-11T10:24:51.510Z,100.00
2023-03-11T10:28:02.802Z,100.00
2023-03-11T10:31:21.808Z,100.00
2023-03-11T10:34:38.264Z,100.00
2023-03-11T10:37:50.244Z,100.00
2023-03-11T10:41:08.204Z,100.00
2023-03-11T10:44:27.138Z,100.00
2023-03-11T10:47:32.756Z,100.00
2023-03-11T10:50:38.355Z,100.00
2023-03-11T10:53:47.633Z,100.00
2023-03-11T10:57:03.902Z,100.00
2023-03-11T11:00:12.662Z,97.98
2023-03-11T11:03:32.367Z,96.92
2023-03-11T11:06:38.634Z,96.11
2023-03-11T11:09:46.651Z,95.12
2023-03-11T11:12:56.975Z,94.65
2023-03-11T11:16:03.789Z,95.28
2023-03-11T11:19:11.884Z,96.13
2023-03-11T11:22:19.221Z,95.19
2023-03-11T11:25:30.034Z,94.64
2023-03-11T11:28:35.975Z,95.54
2023-03-11T11:31:46.761Z,94.65
2023-03-11T11:34:57.979Z,92.27
2023-03-11T11:38:10.336Z,92.79
2023-03-11T11:41:19.471Z,92.58
2023-03-11T11:44:38.880Z,93.84
2023-03-11T11:47:58.428Z,94.58
2023-03-11T11:51:25.893Z,94.28
2023-03-11T11:54:39.824Z,94.91
2023-03-11T11:57:45.512Z,96.37
2023-03-11T12:01:04.287Z,97.93
2023-03-11T12:04:31.653Z,97.85
2023-03-11T12:07:43.138Z,96.67
2023-03-11T12:10:54.203Z,93.43
2023-03-11T12:14:05.713Z,90.45
2023-03-11T12:17:14.494Z,89.01
2023-03-11T12:20:23.499Z,88.06
2023-03-11T12:23:37.792Z,85.18
2023-03-11T12:26:54.542Z,85.42
2023-03-11T12:30:11.825Z,84.65
2023-03-11T12:33:32.624Z,80.35
2023-03-11T12:36:50.955Z,81.16
2023-03-11T12:39:56.583Z,80.04
2023-03-11T12:43:02.096Z,77.68
2023-03-11T12:46:08.127Z,77.69
2023-03-11T12:49:27.065Z,79.63
2023-03-11T12:52:56.166Z,79.87
2023-03-11T12:56:06.489Z,79.43
2023-03-11T12:59:36.086Z,79.83
2023-03-11T13:03:09.618Z,80.67
2023-03-11T13:06:27.956Z,79.59
2023-03-11T13:09:33.566Z,79.64
2023-03-11T13:12:59.817Z,81.10
2023-03-11T13:16:25.475Z,82.53
2023-03-11T13:19:54.137Z,82.90
2023-03-11T13:23:26.704Z,81.75
2023-03-11T13:30:40.914Z,81.71
2023-03-11T13:33:52.535Z,78.84
2023-03-11T13:37:12.187Z,77.24
2023-03-11T13:40:27.671Z,75.52
2023-03-11T13:43:53.771Z,75.26
2023-03-11T13:47:14.522Z,75.62
2023-03-11T13:50:27.059Z,73.19
2023-03-11T13:53:48.302Z,72.63
2023-03-11T13:56:58.061Z,71.70
2023-03-11T14:00:16.162Z,72.55
2023-03-11T14:03:27.482Z,72.26
2023-03-11T14:06:32.866Z,70.15
2023-03-11T14:09:39.169Z,68.58
2023-03-11T14:12:47.551Z,69.37
2023-03-11T14:16:01.331Z,66.56
2023-03-11T14:19:08.817Z,64.28
2023-03-11T14:22:17.081Z,63.86
2023-03-11T14:25:36.444Z,64.37
2023-03-11T14:29:03.427Z,65.11
2023-03-11T14:32:29.876Z,65.69
2023-03-11T14:35:40.962Z,66.01
2023-03-11T14:38:49.377Z,66.72
2023-03-11T14:41:59.811Z,65.17
2023-03-11T14:45:11.586Z,65.53
2023-03-11T14:48:34.095Z,64.49
2023-03-11T14:51:42.502Z,64.90
2023-03-11T14:54:53.465Z,66.31
2023-03-11T14:58:03.948Z,66.71
2023-03-11T15:01:15.342Z,69.11
2023-03-11T15:04:32.704Z,70.42
2023-03-11T15:07:46.612Z,69.28
2023-03-11T15:11:06.461Z,69.63
2023-03-11T15:14:21.014Z,71.48
2023-03-11T15:17:43.836Z,72.89
2023-03-11T15:21:01.763Z,73.75
2023-03-11T15:24:21.182Z,74.91
2023-03-11T15:27:33.635Z,75.42
2023-03-11T15:30:47.804Z,75.64
2023-03-11T15:34:25.287Z,76.47
2023-03-11T15:37:54.172Z,77.89
2023-03-11T15:41:12.812Z,79.22
2023-03-11T15:44:29.413Z,79.81
2023-03-11T15:47:54.927Z,79.40
2023-03-11T15:51:03.173Z,79.45
2023-03-11T15:54:29.356Z,79.15
2023-03-11T15:57:35.597Z,79.41
2023-03-11T16:00:49.899Z,79.67
2023-03-11T16:04:16.683Z,80.24
2023-03-11T16:07:38.114Z,80.34
2023-03-11T16:10:58.104Z,80.03
2023-03-11T16:14:03.996Z,80.06
2023-03-11T16:17:23.608Z,80.52
2023-03-11T16:20:30.156Z,80.19
2023-03-11T16:23:50.549Z,80.25
2023-03-11T16:27:08.068Z,81.04
2023-03-11T16:30:17.119Z,81.88
2023-03-11T16:33:39.771Z,83.24
2023-03-11T16:37:05.560Z,84.26
2023-03-11T16:40:13.593Z,84.82
2023-03-11T16:43:19.112Z,86.00
2023-03-11T16:46:24.767Z,86.48
2023-03-11T16:49:50.440Z,87.18
2023-03-11T16:53:08.574Z,88.53
2023-03-11T16:56:27.072Z,89.34
2023-03-11T16:59:46.628Z,90.07
2023-03-11T17:02:52.310Z,89.73
2023-03-11T17:06:03.863Z,90.38
2023-03-11T17:09:20.575Z,90.35
2023-03-11T17:12:38.962Z,91.10
2023-03-11T17:16:04.958Z,91.40
2023-03-11T17:19:31.370Z,91.86
2023-03-11T17:22:57.212Z,92.00
2023-03-11T17:26:22.875Z,92.11
2023-03-11T17:29:33.760Z,92.22
2023-03-11T17:32:39.468Z,92.24
2023-03-11T17:36:06.081Z,92.79
2023-03-11T17:39:14.155Z,93.24
2023-03-11T17:42:41.304Z,93.18
2023-03-11T17:46:09.411Z,93.53
2023-03-11T17:49:16.501Z,93.17
2023-03-11T17:52:42.174Z,92.66
2023-03-11T17:56:08.896Z,92.19
2023-03-11T17:59:24.520Z,92.01
2023-03-11T18:02:42.163Z,91.63
2023-03-11T18:06:07.928Z,91.45
2023-03-11T18:09:32.106Z,91.17
2023-03-11T18:12:58.193Z,90.90
2023-03-11T18:16:24.859Z,90.72
2023-03-11T18:19:43.124Z,90.52
2023-03-11T18:23:08.944Z,90.25
2023-03-11T18:26:34.770Z,90.09
2023-03-11T18:30:02.162Z,89.93
2023-03-11T18:33:07.877Z,89.60
2023-03-11T18:36:15.270Z,89.44
2023-03-11T18:39:23.610Z,89.11
2023-03-11T18:42:41.877Z,88.83
2023-03-11T18:46:10.124Z,88.67
2023-03-11T18:49:34.475Z,88.65
2023-03-11T18:52:42.494Z,88.54
2023-03-11T18:55:47.904Z,88.67
2023-03-11T18:59:03.436Z,88.68
2023-03-11T19:02:19.780Z,88.81
2023-03-11T19:05:30.008Z,89.21
2023-03-11T19:08:37.687Z,89.45
2023-03-11T19:11:43.234Z,89.79
2023-03-11T19:14:48.657Z,90.18
2023-03-11T19:18:06.778Z,90.31
2023-03-11T19:21:32.993Z,90.51
2023-03-11T19:24:38.580Z,90.30
2023-03-11T19:27:47.553Z,90.64
2023-03-11T19:31:13.833Z,90.75
2023-03-11T19:34:39.282Z,91.16
2023-03-11T19:37:44.987Z,91.33
2023-03-11T19:41:05.504Z,91.39
2023-03-11T19:44:14.405Z,91.80
2023-03-11T19:47:24.224Z,93.25
2023-03-11T19:50:38.639Z,94.88
2023-03-11T19:53:51.794Z,94.97
2023-03-11T19:57:08.488Z,94.97
2023-03-11T20:00:14.764Z,95.28
2023-03-11T20:03:30.508Z,96.13
2023-03-11T20:06:46.243Z,96.23
2023-03-11T20:10:04.116Z,96.49
2023-03-11T20:13:29.802Z,96.47
2023-03-11T20:16:46.337Z,96.39
2023-03-11T20:20:13.402Z,96.24
2023-03-11T20:23:18.995Z,96.14
2023-03-11T20:26:27.504Z,95.81
2023-03-11T20:29:44.207Z,95.87
2023-03-11T20:33:00.532Z,95.91
2023-03-11T20:36:10.181Z,95.79
2023-03-11T20:39:29.431Z,95.62
2023-03-11T20:42:56.234Z,95.11
2023-03-11T20:46:05.340Z,94.97
2023-03-11T20:49:11.263Z,94.95
2023-03-11T20:52:18.833Z,94.96
2023-03-11T20:55:25.694Z,94.84
2023-03-11T20:58:33.834Z,94.64
2023-03-11T21:01:45.863Z,94.76
2023-03-11T21:05:12.763Z,94.80
2023-03-11T21:08:29.444Z,94.65
2023-03-11T21:11:46.227Z,94.57
2023-03-11T21:14:53.989Z,94.79
2023-03-11T21:18:07.023Z,94.77
2023-03-11T21:21:31.082Z,94.91
2023-03-11T21:24:37.086Z,94.85
2023-03-11T21:27:52.533Z,94.78
2023-03-11T21:31:11.974Z,94.47
2023-03-11T21:34:20.777Z,94.11
2023-03-11T21:37:29.895Z,93.75
2023-03-11T21:40:35.391Z,93.49
2023-03-11T21:43:41.841Z,93.21
2023-03-11T21:46:50.403Z,92.93
2023-03-11T21:50:00.837Z,92.75
2023-03-11T21:53:09.328Z,92.71
2023-03-11T21:56:35.144Z,92.76
2023-03-11T21:59:43.277Z,92.81
2023-03-11T22:03:05.832Z,92.86
2023-03-11T22:06:12.388Z,92.91
2023-03-11T22:09:18.013Z,92.93
2023-03-11T22:12:33.935Z,92.96
2023-03-11T22:15:39.626Z,93.04
2023-03-11T22:18:55.295Z,92.97
2023-03-11T22:22:00.720Z,92.94
2023-03-11T22:25:07.056Z,92.74
2023-03-11T22:28:32.732Z,92.43
2023-03-11T22:31:58.715Z,92.19
2023-03-11T22:35:24.624Z,92.16
2023-03-11T22:38:50.458Z,91.83
2023-03-11T22:42:16.543Z,91.67
2023-03-11T22:45:42.434Z,91.54
2023-03-11T22:49:08.273Z,91.60
2023-03-11T22:52:33.996Z,91.77
2023-03-11T22:56:00.954Z,91.81
2023-03-11T22:59:30.662Z,92.03
2023-03-11T23:02:56.996Z,92.17
2023-03-11T23:06:16.637Z,92.43
2023-03-11T23:09:42.925Z,92.47
2023-03-11T23:13:08.968Z,93.22
2023-03-11T23:16:34.780Z,93.57
2023-03-11T23:20:00.969Z,93.59
2023-03-11T23:23:27.064Z,93.80
2023-03-11T23:26:52.985Z,94.09
2023-03-11T23:30:18.929Z,94.49
2023-03-11T23:33:46.913Z,94.66
2023-03-11T23:37:12.520Z,94.90
2023-03-11T23:40:40.787Z,95.13
2023-03-11T23:43:59.175Z,95.39
2023-03-11T23:47:25.512Z,95.63
2023-03-11T23:50:53.600Z,95.70
2023-03-11T23:54:19.229Z,95.80
2023-03-11T23:57:45.175Z,96.09
